Time;durP1;ratioP1;P1;durP2;ratioP2;P2;SDS_P1;SDS_P2;PMS_P1;PMS_P2;Temp;Humidity;BMP_temperature;BMP_pressure;BME280_temperature;BME280_humidity;BME280_pressure;Samples;Min_cycle;Max_cycle;Signal;HPM_P1;HPM_P2
2021/12/04 00:00:21;;;;;;;4.53;2.53;;;;;;;0.80;79.51;98365.91;4923580;29;20054;-77
2021/12/04 00:02:51;;;;;;;4.43;2.60;;;;;;;0.82;79.31;98371.91;4931171;29;20047;-76
2021/12/04 00:05:18;;;;;;;3.20;2.20;;;;;;;0.68;79.38;98358.16;4930213;29;20051;-78
2021/12/04 00:07:45;;;;;;;5.05;2.25;;;;;;;0.78;79.28;98387.25;4920202;29;21126;-81
2021/12/04 00:13:53;;;;;;;5.03;2.17;;;;;;;0.65;79.40;98388.84;4890627;29;20625;-81
2021/12/04 00:16:18;;;;;;;3.33;1.90;;;;;;;0.48;79.18;98374.19;4920532;29;20119;-77
2021/12/04 00:18:44;;;;;;;2.92;1.88;;;;;;;0.17;78.97;98357.69;4920796;29;20639;-77
2021/12/04 00:21:10;;;;;;;4.05;2.25;;;;;;;0.09;78.97;98378.09;4920978;29;20450;-81
2021/12/04 00:23:36;;;;;;;2.30;1.80;;;;;;;-0.03;79.32;98376.25;4920454;29;20039;-76
2021/12/04 00:26:04;;;;;;;4.53;1.90;;;;;;;-0.15;79.16;98384.66;4920620;29;20570;-78
2021/12/04 00:28:30;;;;;;;5.13;2.30;;;;;;;-0.26;78.86;98399.00;4921941;29;20047;-76
2021/12/04 00:30:56;;;;;;;2.78;1.95;;;;;;;-0.53;79.16;98367.13;4918637;29;20056;-78
2021/12/04 00:33:28;;;;;;;2.38;1.88;;;;;;;-0.54;78.62;98379.06;4924768;29;20406;-81
2021/12/04 00:36:00;;;;;;;4.32;2.10;;;;;;;-0.68;79.43;98376.31;4921620;29;20135;-79
2021/12/04 00:49:10;;;;;;;3.53;1.67;;;;;;;-0.87;79.73;98400.72;4924256;29;20051;-78
2021/12/04 00:51:40;;;;;;;4.93;2.60;;;;;;;-0.92;78.98;98398.13;4923443;29;20057;-77
2021/12/04 00:54:09;;;;;;;3.97;2.00;;;;;;;-1.18;78.93;98372.19;4921254;29;20133;-79
2021/12/04 00:56:36;;;;;;;3.55;2.10;;;;;;;-1.08;78.88;98398.72;4920707;29;20040;-77
2021/12/04 00:59:02;;;;;;;3.13;1.88;;;;;;;-1.13;79.11;98398.66;4903286;29;20047;-78
2021/12/04 01:01:28;;;;;;;3.05;2.20;;;;;;;-1.16;79.39;98397.75;4921621;29;20043;-78
2021/12/04 01:03:54;;;;;;;3.40;2.05;;;;;;;-1.25;79.19;98388.25;4916898;29;20066;-79
2021/12/04 01:06:20;;;;;;;4.80;2.75;;;;;;;-1.32;79.76;98383.91;4921114;29;20047;-77
2021/12/04 01:08:45;;;;;;;2.88;1.90;;;;;;;-1.42;79.35;98380.31;4918770;29;20067;-78
2021/12/04 01:11:11;;;;;;;4.05;2.22;;;;;;;-1.40;79.17;98394.84;4919990;29;20091;-79
2021/12/04 01:13:37;;;;;;;4.10;2.22;;;;;;;-1.53;79.13;98375.03;4919445;29;20043;-78
2021/12/04 01:16:03;;;;;;;4.63;2.00;;;;;;;-1.51;79.80;98391.22;4903851;29;20043;-78
2021/12/04 01:18:29;;;;;;;3.90;2.00;;;;;;;-1.60;79.63;98374.06;4924781;29;20048;-81
2021/12/04 01:20:55;;;;;;;4.15;2.20;;;;;;;-1.47;79.27;98402.38;4921021;29;20048;-80
2021/12/04 01:23:20;;;;;;;4.95;2.38;;;;;;;-1.64;79.54;98379.94;4920444;29;20043;-78
2021/12/04 01:25:46;;;;;;;3.85;1.90;;;;;;;-1.63;79.56;98381.66;4908144;29;20043;-79
2021/12/04 01:28:13;;;;;;;3.85;2.20;;;;;;;-1.65;79.98;98387.59;4920179;29;20497;-78
2021/12/04 01:30:40;;;;;;;3.38;2.05;;;;;;;-1.64;79.78;98409.72;4918843;29;20066;-77
2021/12/04 01:33:06;;;;;;;3.30;1.90;;;;;;;-1.83;79.48;98377.06;4903113;29;20509;-81
2021/12/04 01:35:31;;;;;;;3.92;2.50;;;;;;;-1.78;79.73;98397.59;4918466;29;20055;-77
2021/12/04 01:37:57;;;;;;;4.53;2.60;;;;;;;-1.97;79.36;98370.88;4922953;29;20044;-78
2021/12/04 01:40:24;;;;;;;5.68;2.60;;;;;;;-1.87;79.71;98392.31;4904155;29;20126;-77
2021/12/04 01:42:49;;;;;;;3.00;2.00;;;;;;;-2.00;79.71;98381.88;4924603;29;20070;-76
2021/12/04 01:45:18;;;;;;;5.47;2.33;;;;;;;-2.05;79.92;98380.94;4925665;29;20044;-77
2021/12/04 01:47:43;;;;;;;3.58;2.15;;;;;;;-1.95;80.00;98394.72;4928691;29;20413;-78
2021/12/04 01:50:10;;;;;;;4.32;2.47;;;;;;;-2.05;80.00;98378.38;4920997;29;20135;-76
2021/12/04 01:52:36;;;;;;;4.68;2.45;;;;;;;-2.08;79.95;98387.63;4920672;29;20123;-76
2021/12/04 01:55:04;;;;;;;4.88;2.63;;;;;;;-2.02;79.32;98408.16;4907908;29;20178;-77
2021/12/04 01:57:31;;;;;;;3.70;2.53;;;;;;;-2.01;80.46;98414.97;4912376;29;20138;-76
2021/12/04 01:59:57;;;;;;;7.07;3.05;;;;;;;-2.15;79.81;98395.19;4894429;29;20047;-80
2021/12/04 02:02:23;;;;;;;7.28;3.22;;;;;;;-2.21;80.20;98392.50;4932722;29;20051;-79
2021/12/04 02:04:49;;;;;;;6.32;3.05;;;;;;;-2.09;80.17;98421.63;4939219;29;20064;-79
2021/12/04 02:07:16;;;;;;;6.05;2.70;;;;;;;-2.09;79.81;98426.72;4942045;29;20044;-76
2021/12/04 02:09:42;;;;;;;6.88;3.08;;;;;;;-2.15;80.37;98412.16;4935372;29;20047;-78
2021/12/04 02:12:09;;;;;;;8.05;3.20;;;;;;;-2.13;79.88;98415.59;4922723;29;20035;-79
2021/12/04 02:14:36;;;;;;;6.00;3.05;;;;;;;-2.29;79.73;98404.22;4921435;29;20048;-79
2021/12/04 02:17:03;;;;;;;5.30;2.60;;;;;;;-2.27;79.97;98413.66;4920999;29;20793;-78
2021/12/04 02:19:29;;;;;;;4.93;2.55;;;;;;;-2.23;80.18;98421.38;4893116;29;20414;-78
2021/12/04 02:21:55;;;;;;;7.75;3.80;;;;;;;-2.25;80.21;98425.56;4907989;29;20433;-79
2021/12/04 02:24:21;;;;;;;4.72;2.20;;;;;;;-2.48;80.03;98393.66;4920411;29;20056;-81
2021/12/04 02:26:48;;;;;;;4.45;2.55;;;;;;;-2.34;80.21;98434.72;4902271;29;20043;-78
2021/12/04 02:29:14;;;;;;;5.03;2.75;;;;;;;-2.51;79.55;98401.25;4917354;29;20102;-78
2021/12/04 02:31:48;;;;;;;6.05;2.88;;;;;;;-2.42;79.99;98423.50;4920029;29;20146;-79
2021/12/04 02:34:31;;;;;;;7.07;2.90;;;;;;;-2.38;80.38;98439.75;4919988;29;20513;-78
2021/12/04 02:37:00;;;;;;;3.85;2.50;;;;;;;-2.55;80.31;98407.13;4918161;29;20059;-81
2021/12/04 02:39:30;;;;;;;3.65;2.38;;;;;;;-2.43;80.07;98439.66;4918801;29;20138;-80
2021/12/04 02:41:58;;;;;;;4.35;2.53;;;;;;;-2.68;80.05;98395.81;4920705;29;20040;-79
2021/12/04 02:44:33;;;;;;;5.35;2.20;;;;;;;-2.47;80.68;98432.75;4919060;29;20517;-77
2021/12/04 02:46:59;;;;;;;5.07;2.40;;;;;;;-2.62;80.08;98410.34;4925976;29;20051;-78
2021/12/04 02:49:25;;;;;;;4.20;2.13;;;;;;;-2.48;80.36;98439.53;4926441;29;20138;-78
2021/12/04 02:51:51;;;;;;;5.57;2.72;;;;;;;-2.52;80.41;98447.91;4919027;29;20040;-79
2021/12/04 02:54:17;;;;;;;4.53;2.50;;;;;;;-2.46;80.60;98454.88;4918974;29;20048;-78
2021/12/04 02:56:44;;;;;;;4.65;2.67;;;;;;;-2.46;80.56;98448.06;4918474;29;20485;-77
2021/12/04 02:59:11;;;;;;;4.60;2.60;;;;;;;-2.52;80.17;98442.81;4919487;29;20047;-79
2021/12/04 03:01:38;;;;;;;5.28;2.63;;;;;;;-2.46;80.46;98452.31;4917231;29;20103;-79
2021/12/04 03:04:09;;;;;;;2.85;1.88;;;;;;;-2.46;80.49;98455.72;4918435;29;20051;-78
2021/12/04 03:06:46;;;;;;;3.10;1.92;;;;;;;-2.60;80.36;98429.94;4935170;29;20052;-78
2021/12/04 03:09:14;;;;;;;4.57;2.08;;;;;;;-2.62;80.22;98438.38;4920439;29;20043;-76
2021/12/04 03:11:40;;;;;;;4.38;2.60;;;;;;;-2.45;80.58;98466.78;4920889;29;20040;-80
2021/12/04 03:14:07;;;;;;;3.83;2.45;;;;;;;-2.64;80.71;98434.94;4918341;29;20098;-78
2021/12/04 03:16:35;;;;;;;5.35;2.55;;;;;;;-2.49;80.73;98459.88;4919574;29;20143;-79
2021/12/04 03:19:01;;;;;;;6.05;2.83;;;;;;;-2.47;80.47;98469.28;4918958;29;20071;-75
2021/12/04 03:21:27;;;;;;;4.47;2.60;;;;;;;-2.61;80.14;98453.69;4919657;29;20051;-80
2021/12/04 03:23:59;;;;;;;3.42;2.25;;;;;;;-2.51;80.38;98471.72;4918171;29;20048;-77
2021/12/04 03:26:26;;;;;;;4.57;2.60;;;;;;;-2.54;80.77;98462.34;4917716;29;20048;-78
2021/12/04 03:28:53;;;;;;;4.28;2.70;;;;;;;-2.64;80.65;98447.66;4918200;29;20048;-78
2021/12/04 03:42:15;;;;;;;4.75;2.50;;;;;;;-2.57;80.57;98475.84;4934252;29;20063;-78
2021/12/04 03:44:41;;;;;;;3.92;2.40;;;;;;;-2.55;80.75;98485.22;4939395;29;20478;-77
2021/12/04 03:47:09;;;;;;;4.78;2.60;;;;;;;-2.85;80.26;98438.72;4910750;29;20075;-76
2021/12/04 03:49:35;;;;;;;3.70;2.70;;;;;;;-2.67;80.70;98465.41;4906691;29;20084;-78
2021/12/04 03:52:00;;;;;;;2.85;2.08;;;;;;;-2.50;80.58;98486.19;4939361;29;20063;-74
2021/12/04 03:54:26;;;;;;;3.35;2.15;;;;;;;-2.62;80.22;98471.50;4938111;29;20051;-77
2021/12/04 03:57:02;;;;;;;3.75;2.30;;;;;;;-2.58;80.66;98480.94;4942108;29;20075;-78
2021/12/04 03:59:29;;;;;;;4.55;2.38;;;;;;;-2.48;80.47;98494.72;4938182;29;20053;-77
2021/12/04 04:01:55;;;;;;;4.63;2.75;;;;;;;-2.49;80.30;98487.91;4938528;29;20078;-77
2021/12/04 04:04:20;;;;;;;3.63;2.40;;;;;;;-2.40;80.59;98492.34;4939604;29;20039;-77
2021/12/04 04:06:46;;;;;;;3.25;2.35;;;;;;;-2.43;80.83;98477.88;4938953;29;20046;-77
2021/12/04 04:09:12;;;;;;;3.67;2.30;;;;;;;-2.23;80.76;98483.38;4904877;29;20059;-77
2021/12/04 04:11:38;;;;;;;4.93;2.20;;;;;;;-2.25;80.14;98474.00;4936137;29;20040;-77
2021/12/04 04:14:04;;;;;;;4.30;2.45;;;;;;;-2.16;80.89;98471.63;4935002;29;20080;-78
2021/12/04 04:16:31;;;;;;;3.88;2.40;;;;;;;-1.89;80.65;98501.06;4929419;29;20076;-79
2021/12/04 04:18:56;;;;;;;3.97;2.35;;;;;;;-2.00;80.73;98460.06;4923466;29;20040;-80
2021/12/04 04:21:22;;;;;;;4.90;2.40;;;;;;;-1.78;80.17;98494.50;4922745;29;20523;-77
2021/12/04 04:23:48;;;;;;;4.35;2.35;;;;;;;-1.72;80.86;98488.66;4912671;29;20046;-77
2021/12/04 04:26:14;;;;;;;4.00;2.80;;;;;;;-1.68;80.87;98493.00;4925767;29;20058;-78
2021/12/04 04:28:39;;;;;;;3.95;2.45;;;;;;;-1.67;80.19;98489.63;4925425;29;20047;-79
2021/12/04 04:31:08;;;;;;;4.63;2.20;;;;;;;-1.53;80.25;98488.16;4927972;29;20059;-79
2021/12/04 04:33:37;;;;;;;3.45;2.40;;;;;;;-1.65;80.26;98464.97;4927513;29;20143;-76
2021/12/04 04:36:43;;;;;;;5.90;2.38;;;;;;;-1.61;80.11;98466.75;4924038;29;20165;-78
2021/12/04 04:39:15;;;;;;;4.00;2.40;;;;;;;-1.47;80.30;98502.72;4920236;29;20055;-78
2021/12/04 05:01:12;;;;;;;4.38;2.60;;;;;;;-1.38;80.31;98507.13;4921539;29;20043;-76
2021/12/04 05:12:24;;;;;;;5.20;2.50;;;;;;;-1.41;79.74;98500.31;4919360;29;20051;-79
2021/12/04 05:14:19;;;;;;;3.38;1.90;;;;;;;-1.55;79.71;98484.72;4917841;29;20576;-80
2021/12/04 05:16:58;;;;;;;2.72;1.77;;;;;;;-1.24;79.41;98538.03;4919790;29;20081;-80
2021/12/04 05:19:52;;;;;;;3.90;2.38;;;;;;;-1.49;79.60;98493.34;4921098;29;20138;-78
2021/12/04 05:22:14;;;;;;;5.15;2.60;;;;;;;-1.18;80.32;98547.47;4921566;29;20076;-82
2021/12/04 05:24:41;;;;;;;3.80;2.33;;;;;;;-1.31;79.85;98526.84;4919723;29;20048;-79
2021/12/04 05:27:08;;;;;;;4.18;2.33;;;;;;;-1.16;79.78;98549.25;4920384;29;20565;-77
2021/12/04 05:29:34;;;;;;;3.70;2.22;;;;;;;-1.20;79.37;98544.91;4919910;29;20048;-79
2021/12/04 05:32:01;;;;;;;4.75;2.20;;;;;;;-1.29;79.18;98529.41;4926581;29;20052;-78
2021/12/04 05:34:30;;;;;;;3.88;2.50;;;;;;;-1.31;79.48;98524.28;4904531;29;20047;-78
2021/12/04 05:36:58;;;;;;;5.07;2.17;;;;;;;-1.78;79.90;98442.63;4890368;29;20035;-78
2021/12/04 05:39:25;;;;;;;5.00;2.60;;;;;;;-1.22;79.67;98547.47;4918875;29;20501;-78
2021/12/04 05:41:51;;;;;;;3.08;2.30;;;;;;;-1.19;79.72;98543.22;4903945;29;20044;-81
2021/12/04 05:44:21;;;;;;;4.07;2.50;;;;;;;-1.28;79.26;98536.25;4920395;29;20133;-78
2021/12/04 05:46:58;;;;;;;2.92;2.20;;;;;;;-1.25;79.17;98544.84;4919839;29;20046;-77
2021/12/04 05:49:52;;;;;;;4.07;2.30;;;;;;;-1.12;79.11;98560.38;4921371;29;20044;-80
2021/12/04 05:52:34;;;;;;;4.25;2.30;;;;;;;-1.48;79.80;98487.41;4908261;29;20385;-77
2021/12/04 05:55:15;;;;;;;4.72;2.30;;;;;;;-1.09;79.14;98568.94;4892375;29;20036;-76
2021/12/04 05:57:42;;;;;;;4.82;2.45;;;;;;;-1.33;79.61;98510.66;4919974;29;20062;-77
2021/12/04 06:00:14;;;;;;;4.57;2.72;;;;;;;-1.23;79.44;98537.19;4920380;29;20051;-79
2021/12/04 06:02:40;;;;;;;4.35;2.60;;;;;;;-1.24;79.01;98544.00;4920052;29;20153;-77
2021/12/04 06:05:06;;;;;;;2.95;2.13;;;;;;;-1.03;78.92;98570.75;4923939;29;20072;-78
2021/12/04 06:07:32;;;;;;;5.80;2.38;;;;;;;-1.02;79.56;98574.16;4921807;29;20126;-78
2021/12/04 06:09:58;;;;;;;2.90;2.20;;;;;;;-1.26;79.26;98529.47;4920445;29;20052;-78
2021/12/04 06:12:23;;;;;;;4.40;2.70;;;;;;;-1.16;79.30;98541.59;4920615;29;20134;-79
2021/12/04 06:14:49;;;;;;;5.00;2.28;;;;;;;-1.11;79.38;98572.31;4919968;29;20044;-78
2021/12/04 06:17:18;;;;;;;4.35;2.40;;;;;;;-1.08;78.95;98583.44;4919441;29;20599;-78
2021/12/04 06:22:40;;;;;;;3.95;2.60;;;;;;;-1.05;78.88;98590.31;4923531;29;20039;-77
2021/12/04 06:25:07;;;;;;;4.70;2.80;;;;;;;-1.12;79.12;98578.25;4921639;29;20040;-77
2021/12/04 06:27:33;;;;;;;4.43;2.70;;;;;;;-1.13;79.43;98563.75;4920604;29;20080;-76
2021/12/04 06:30:11;;;;;;;4.80;2.65;;;;;;;-1.02;79.48;98582.69;4903896;29;20092;-76
2021/12/04 06:32:38;;;;;;;4.60;2.47;;;;;;;-0.93;78.97;98605.84;4919280;29;20052;-77
2021/12/04 06:35:10;;;;;;;3.65;2.55;;;;;;;-1.13;79.18;98563.75;4918418;29;20107;-78
2021/12/04 06:37:36;;;;;;;4.43;2.42;;;;;;;-1.00;78.83;98605.69;4919025;29;20095;-78
2021/12/04 06:40:13;;;;;;;4.13;2.67;;;;;;;-1.03;78.97;98603.97;4918680;29;20047;-78
2021/12/04 06:42:39;;;;;;;10.93;2.55;;;;;;;-0.97;79.25;98613.44;4922163;29;20043;-81
2021/12/04 06:45:10;;;;;;;5.05;2.45;;;;;;;-0.93;78.73;98605.00;4919052;29;20054;-77
2021/12/04 06:47:38;;;;;;;3.80;2.40;;;;;;;-0.97;79.49;98600.66;4919363;29;20047;-77
2021/12/04 06:50:15;;;;;;;4.45;2.60;;;;;;;-0.94;79.56;98601.56;4920044;29;20086;-79
2021/12/04 06:52:48;;;;;;;4.63;2.20;;;;;;;-0.94;79.29;98608.38;4922308;29;20055;-76
2021/12/04 06:55:19;;;;;;;4.75;2.53;;;;;;;-1.17;78.99;98570.50;4906420;29;20075;-80
2021/12/04 06:57:46;;;;;;;4.85;2.70;;;;;;;-1.23;79.31;98566.16;4919477;29;20052;-77
2021/12/04 07:00:20;;;;;;;3.67;2.40;;;;;;;-1.10;79.35;98595.31;4920845;29;20050;-75
2021/12/04 07:03:04;;;;;;;4.43;2.60;;;;;;;-0.91;79.07;98627.16;4905655;29;20365;-78
2021/12/04 07:05:30;;;;;;;4.35;2.55;;;;;;;-1.08;79.65;98595.34;4918133;29;20126;-78
2021/12/04 07:07:56;;;;;;;3.60;2.60;;;;;;;-0.87;78.92;98645.94;4918308;29;20135;-81
2021/12/04 07:10:22;;;;;;;5.30;3.05;;;;;;;-0.87;79.38;98630.63;4902403;29;20358;-78
2021/12/04 07:12:48;;;;;;;5.10;2.70;;;;;;;-1.11;78.84;98605.50;4901979;29;20040;-77
2021/12/04 07:15:14;;;;;;;5.00;3.08;;;;;;;-0.92;79.07;98633.09;4920162;29;20047;-77
2021/12/04 07:17:40;;;;;;;5.20;3.35;;;;;;;-0.86;78.45;98654.50;4920660;29;20045;-77
2021/12/04 07:20:07;;;;;;;5.50;2.80;;;;;;;-0.89;79.79;98654.44;4905760;29;20116;-79
2021/12/04 07:22:34;;;;;;;5.43;2.85;;;;;;;-0.98;79.63;98629.59;4922275;29;20040;-78
2021/12/04 07:25:01;;;;;;;5.32;2.83;;;;;;;-0.82;79.51;98661.38;4924801;29;20521;-78
2021/12/04 07:27:48;;;;;;;4.68;2.75;;;;;;;-1.43;78.54;98563.22;4923619;29;20054;-78
2021/12/04 07:30:40;;;;;;;8.20;3.40;;;;;;;-0.83;78.82;98662.22;4899503;29;20051;-76
2021/12/04 07:33:15;;;;;;;4.32;2.63;;;;;;;-1.02;79.67;98628.66;4939496;29;20043;-80
2021/12/04 07:35:41;;;;;;;4.10;2.40;;;;;;;-0.83;79.72;98685.22;4925336;29;20043;-78
2021/12/04 07:38:10;;;;;;;3.63;2.40;;;;;;;-0.92;79.06;98679.09;4925502;29;20138;-78
2021/12/04 07:40:44;;;;;;;5.43;2.40;;;;;;;-1.00;79.03;98661.88;4903433;29;20103;-80
2021/12/04 07:43:16;;;;;;;4.82;2.50;;;;;;;-0.80;78.92;98700.59;4924058;29;20601;-83
2021/12/04 07:45:57;;;;;;;8.52;2.70;;;;;;;-1.54;78.97;98593.63;4884151;29;20046;-77
2021/12/04 07:48:47;;;;;;;6.68;2.65;;;;;;;-0.72;79.46;98709.25;4910241;29;20048;-77
2021/12/04 07:51:17;;;;;;;6.32;3.88;;;;;;;-1.45;79.36;98584.44;4907935;29;20072;-77
2021/12/04 07:53:52;;;;;;;7.00;3.47;;;;;;;-0.72;79.62;98726.28;4922856;29;20052;-78
2021/12/04 07:56:21;;;;;;;7.45;2.88;;;;;;;-0.74;78.89;98717.72;4924304;29;20043;-77
2021/12/04 07:58:50;;;;;;;5.97;2.80;;;;;;;-0.61;79.36;98728.22;4898097;29;20145;-77
2021/12/04 08:01:19;;;;;;;5.35;2.97;;;;;;;-0.71;79.06;98718.66;4923940;29;20040;-80
2021/12/04 08:03:45;;;;;;;5.70;3.22;;;;;;;-0.62;79.37;98736.72;4925790;29;20036;-78
2021/12/04 08:06:11;;;;;;;4.20;2.42;;;;;;;-0.51;79.63;98736.03;4924292;29;20043;-78
2021/12/04 08:08:44;;;;;;;3.28;2.25;;;;;;;-0.38;78.82;98740.56;4924957;29;20039;-79
2021/12/04 08:11:10;;;;;;;7.47;3.67;;;;;;;-0.20;79.01;98742.56;4909708;29;20039;-77
2021/12/04 08:13:36;;;;;;;5.75;2.53;;;;;;;0.12;79.74;98743.94;4911940;29;20120;-80
2021/12/04 08:16:05;;;;;;;3.10;2.10;;;;;;;0.44;79.47;98743.59;4929217;29;20043;-76
2021/12/04 08:18:34;;;;;;;3.38;2.00;;;;;;;0.93;79.24;98748.56;4928423;29;21011;-78
2021/12/04 08:21:02;;;;;;;2.45;2.10;;;;;;;1.69;79.59;98758.84;4916477;29;20050;-77
2021/12/04 08:23:28;;;;;;;3.75;2.00;;;;;;;1.92;78.54;98746.22;4930321;29;20043;-78
2021/12/04 08:25:57;;;;;;;4.20;1.90;;;;;;;1.76;77.51;98735.81;4912612;29;20256;-80
2021/12/04 08:28:56;;;;;;;;;;;;;;;;;;;;;
2021/12/04 08:31:39;;;;;;;2.78;1.70;;;;;;;0.43;77.46;98580.63;4904916;29;20075;-79
2021/12/04 08:38:02;;;;;;;2.08;1.58;;;;;;;0.42;76.35;98642.88;4903574;29;20091;-79
2021/12/04 08:40:43;;;;;;;;;;;;;;;;;;;;;
2021/12/04 08:43:21;;;;;;;1.42;1.25;;;;;;;1.24;76.64;98807.91;4928534;29;20052;-77
2021/12/04 08:46:05;;;;;;;2.88;1.67;;;;;;;0.40;76.06;98681.28;4913985;29;20048;-80
2021/12/04 08:49:12;;;;;;;2.58;1.52;;;;;;;1.25;76.07;98813.88;4924399;29;20059;-77
2021/12/04 08:51:38;;;;;;;2.15;1.60;;;;;;;1.32;75.72;98820.81;4901851;29;20048;-79
2021/12/04 08:54:05;;;;;;;2.05;1.40;;;;;;;1.27;75.52;98778.88;4901169;29;20076;-78
2021/12/04 08:56:59;;;;;;;4.90;1.77;;;;;;;1.02;75.71;98704.25;4911328;29;20068;-80
2021/12/04 08:59:35;;;;;;;4.15;1.92;;;;;;;0.81;75.56;98626.31;4904291;29;20123;-77
2021/12/04 09:02:17;;;;;;;1.85;1.45;;;;;;;1.36;74.69;98704.66;4898888;29;20063;-79
2021/12/04 09:04:47;;;;;;;1.70;1.58;;;;;;;1.99;74.36;98814.72;4930352;29;20455;-81
2021/12/04 09:07:14;;;;;;;1.40;1.27;;;;;;;2.18;74.62;98825.16;4899129;29;20064;-77
2021/12/04 09:09:39;;;;;;;2.22;1.60;;;;;;;1.95;74.07;98795.00;4901119;29;20091;-76
2021/12/04 09:12:11;;;;;;;2.38;1.65;;;;;;;1.97;74.36;98811.28;4899138;29;20041;-77
2021/12/04 09:14:40;;;;;;;3.22;1.77;;;;;;;2.21;74.52;98815.78;4928472;29;20135;-78
2021/12/04 09:17:10;;;;;;;2.75;1.60;;;;;;;3.37;75.50;98817.44;4912959;29;20186;-79
2021/12/04 09:19:36;;;;;;;2.75;1.52;;;;;;;5.45;75.50;98812.34;4899479;29;20040;-78
2021/12/04 09:22:25;;;;;;;2.65;1.70;;;;;;;7.29;76.45;98781.69;4928422;29;20048;-76
2021/12/04 09:24:55;;;;;;;3.72;1.90;;;;;;;9.21;76.99;98783.94;4912297;29;20048;-80
2021/12/04 09:30:12;;;;;;;1.92;1.60;;;;;;;11.20;72.01;98781.94;4901638;29;20079;-77
2021/12/04 10:33:54;;;;;;;2.10;1.20;;;;;;;2.42;63.80;98906.72;4915264;29;20137;-76
2021/12/04 10:36:34;;;;;;;2.10;1.38;;;;;;;2.11;64.58;98885.84;4915599;29;20036;-75
2021/12/04 10:39:01;;;;;;;1.58;1.20;;;;;;;2.18;65.01;98909.88;4913561;29;20465;-77
2021/12/04 10:41:47;;;;;;;1.73;1.30;;;;;;;2.24;65.13;98912.53;4914632;29;20059;-76
2021/12/04 10:44:32;;;;;;;2.85;1.60;;;;;;;1.42;65.52;98770.50;4897316;29;20052;-76
2021/12/04 10:47:10;;;;;;;2.33;1.60;;;;;;;2.16;65.59;98883.34;4914899;29;20048;-80
2021/12/04 10:52:43;;;;;;;;;;;;;;;;;;;;;
2021/12/04 11:47:12;;;;;;;2.75;1.70;;;;;;;0.38;68.87;98985.00;4930849;29;20039;-77
2021/12/04 11:49:38;;;;;;;3.28;1.85;;;;;;;0.18;68.42;98966.69;4915816;29;20111;-78
2021/12/04 11:52:11;;;;;;;3.42;2.33;;;;;;;0.17;68.99;98972.63;4914353;29;20625;-79
2021/12/04 11:54:53;;;;;;;3.08;2.00;;;;;;;0.17;69.29;98954.72;4915061;29;20055;-81
2021/12/04 11:57:30;;;;;;;3.05;2.00;;;;;;;0.32;69.53;98955.88;4897680;29;20044;-78
2021/12/04 12:00:28;;;;;;;3.13;2.00;;;;;;;0.43;69.80;98972.28;4914245;29;20103;-79
2021/12/04 12:03:17;;;;;;;4.18;2.20;;;;;;;0.53;68.95;98987.00;4914098;29;20472;-77
2021/12/04 12:06:06;;;;;;;3.25;2.08;;;;;;;0.45;69.27;98978.28;4917927;29;20051;-79
2021/12/04 12:08:37;;;;;;;3.42;1.85;;;;;;;0.49;69.69;98986.88;4916773;29;20067;-75
2021/12/04 12:11:09;;;;;;;3.38;2.10;;;;;;;0.58;69.63;98993.03;4902466;29;20139;-82
2021/12/04 12:13:41;;;;;;;4.82;2.00;;;;;;;0.60;69.71;98990.50;4917276;29;20040;-77
2021/12/04 12:16:24;;;;;;;2.85;1.77;;;;;;;0.64;69.82;98996.53;4923683;29;20052;-78
2021/12/04 12:18:58;;;;;;;2.50;1.75;;;;;;;0.69;69.46;99000.91;4901187;29;20048;-76
2021/12/04 12:25:09;;;;;;;3.38;2.22;;;;;;;0.57;69.66;98978.50;4868879;29;20064;-76
2021/12/04 12:27:55;;;;;;;3.47;2.25;;;;;;;0.54;69.40;98995.50;4912756;29;20060;-80
2021/12/04 12:36:20;;;;;;;3.97;2.25;;;;;;;0.67;69.61;99004.28;4916451;29;20392;-78
2021/12/04 12:38:57;;;;;;;4.38;2.25;;;;;;;0.68;69.43;99021.38;4901723;29;20043;-78
2021/12/04 12:41:26;;;;;;;3.50;2.50;;;;;;;0.68;69.54;99032.47;4917489;29;20048;-76
2021/12/04 12:43:57;;;;;;;6.20;2.83;;;;;;;0.73;70.32;99028.31;4916773;29;20123;-77
2021/12/04 12:46:38;;;;;;;3.20;2.20;;;;;;;0.71;70.46;99032.53;4916534;29;20055;-78
2021/12/04 12:49:26;;;;;;;3.45;2.40;;;;;;;0.66;69.83;99034.16;4932628;29;20048;-76
2021/12/04 12:52:24;;;;;;;5.25;2.95;;;;;;;0.33;69.86;98998.53;4905013;29;20561;-79
2021/12/04 12:54:55;;;;;;;4.53;2.90;;;;;;;0.55;69.69;99049.31;4917133;29;20052;-77
2021/12/04 12:57:38;;;;;;;4.88;2.72;;;;;;;0.18;69.81;98994.81;4902319;29;20044;-77
2021/12/04 13:12:12;;;;;;;2.97;1.77;;;;;;;0.08;69.56;99049.22;4918709;29;20052;-77
2021/12/04 13:14:41;;;;;;;3.15;1.67;;;;;;;0.05;70.13;99072.19;4900259;29;20146;-77
2021/12/04 13:17:13;;;;;;;2.88;1.80;;;;;;;-0.21;69.64;99042.59;4916679;29;20454;-78
2021/12/04 13:19:50;;;;;;;2.65;1.80;;;;;;;0.04;70.06;99073.00;4917447;29;20055;-76
2021/12/04 13:22:24;;;;;;;3.85;1.90;;;;;;;-0.15;70.06;99054.69;4900096;29;20040;-75
2021/12/04 13:24:55;;;;;;;3.38;2.20;;;;;;;-0.11;69.74;99076.94;4916630;29;20044;-79
2021/12/04 13:30:03;;;;;;;2.75;1.60;;;;;;;-0.06;70.47;99077.91;4931128;29;20040;-78
2021/12/04 13:32:36;;;;;;;4.82;1.88;;;;;;;-0.07;69.84;99083.84;4898913;29;20043;-79
2021/12/04 13:35:37;;;;;;;2.95;1.83;;;;;;;0.03;69.82;99095.16;4916040;29;20040;-78
2021/12/04 13:38:05;;;;;;;3.10;1.85;;;;;;;-0.11;69.41;99104.22;4897167;29;20058;-77
2021/12/04 13:40:37;;;;;;;5.97;1.80;;;;;;;-0.16;70.09;99094.72;4899976;29;20502;-78
2021/12/04 13:43:07;;;;;;;;;;;;;;;-0.07;70.59;99116.25;4917315;29;20514;-78
2021/12/04 13:45:47;;;;;;;3.35;1.73;;;;;;;-0.34;69.57;99077.28;4915461;29;19919;-76
2021/12/04 13:48:32;;;;;;;2.65;1.63;;;;;;;-0.09;69.70;99118.75;4901213;29;20040;-77
2021/12/04 13:50:59;;;;;;;2.70;1.63;;;;;;;-0.10;69.72;99136.63;4899768;29;20115;-77
2021/12/04 13:53:45;;;;;;;3.75;2.00;;;;;;;-0.24;69.60;99110.72;4916430;29;20040;-79
2021/12/04 13:56:22;;;;;;;2.90;1.70;;;;;;;-0.14;70.09;99161.28;4920705;29;20118;-77
2021/12/04 14:02:03;;;;;;;2.50;1.73;;;;;;;-0.96;69.99;99011.03;4917159;29;20048;-77
2021/12/04 14:04:32;;;;;;;3.47;2.10;;;;;;;-0.83;69.85;99055.66;4918045;29;20048;-77
2021/12/04 14:07:02;;;;;;;3.63;2.20;;;;;;;-0.10;70.28;99146.88;4916534;29;20048;-77
2021/12/04 14:09:35;;;;;;;4.15;2.30;;;;;;;-0.11;69.96;99132.34;4914650;29;20054;-82
2021/12/04 14:12:03;;;;;;;3.70;2.40;;;;;;;-0.04;70.29;99141.91;4914319;29;20048;-78
2021/12/04 14:14:31;;;;;;;4.03;2.40;;;;;;;0.01;69.75;99149.69;4931024;29;20048;-78
2021/12/04 14:17:11;;;;;;;4.40;2.40;;;;;;;-0.10;70.29;99132.38;4916502;29;20154;-80
2021/12/04 14:19:37;;;;;;;5.60;2.90;;;;;;;-0.15;69.76;99128.88;4899860;29;20047;-78
2021/12/04 14:22:07;;;;;;;4.40;2.90;;;;;;;-0.17;69.32;99138.19;4921360;29;20076;-77
2021/12/04 14:24:42;;;;;;;4.05;2.10;;;;;;;-0.14;70.09;99140.81;4922562;29;20039;-77
2021/12/04 14:27:10;;;;;;;5.22;2.17;;;;;;;-0.05;70.34;99156.38;4934476;29;20533;-78
2021/12/04 14:29:41;;;;;;;4.43;2.47;;;;;;;-0.09;70.38;99161.38;4899072;29;20518;-80
2021/12/04 14:32:10;;;;;;;4.63;2.50;;;;;;;-0.20;70.36;99141.53;4914889;29;20175;-76
2021/12/04 14:34:37;;;;;;;3.92;2.30;;;;;;;-0.10;69.96;99157.94;4915848;29;20047;-80
2021/12/04 14:37:15;;;;;;;4.85;2.60;;;;;;;-0.13;70.19;99163.03;4916475;29;20043;-77
2021/12/04 14:40:02;;;;;;;4.60;2.40;;;;;;;-0.14;70.10;99165.53;4916146;29;20421;-79
2021/12/04 14:43:11;;;;;;;3.70;2.17;;;;;;;-0.89;69.93;99045.25;4917376;29;20202;-78
2021/12/04 14:46:15;;;;;;;2.28;1.85;;;;;;;-1.08;69.17;99042.25;4893115;29;20048;-81
2021/12/04 14:49:09;;;;;;;2.90;1.50;;;;;;;-1.50;69.33;98986.69;4917523;29;20044;-80
2021/12/04 14:51:43;;;;;;;3.47;1.90;;;;;;;-1.39;69.35;99066.94;4918579;29;20036;-77
2021/12/04 14:54:10;;;;;;;2.38;1.40;;;;;;;-0.72;70.08;99181.97;4916667;29;20040;-76
2021/12/04 14:57:02;;;;;;;1.95;1.10;;;;;;;-0.98;69.12;99171.91;4920122;29;20051;-76
2021/12/04 14:59:32;;;;;;;;;;;;;;;-0.83;69.44;99184.25;4915987;29;20096;-79
2021/12/04 15:02:13;;;;;;;2.00;1.30;;;;;;;-0.93;69.02;99188.22;4920117;29;19923;-78
2021/12/04 15:04:40;;;;;;;2.65;1.45;;;;;;;-0.96;69.74;99195.81;4916582;29;20549;-78
2021/12/04 15:07:26;;;;;;;2.53;1.42;;;;;;;-1.18;69.45;99183.25;4913763;29;20067;-76
2021/12/04 15:09:56;;;;;;;3.55;1.70;;;;;;;-1.16;69.44;99190.16;4914135;29;20067;-83
2021/12/04 15:12:34;;;;;;;2.10;1.50;;;;;;;-1.06;69.59;99204.06;4897813;29;20130;-79
2021/12/04 15:15:08;;;;;;;2.75;1.42;;;;;;;-1.32;68.70;99180.34;4913336;29;20040;-79
2021/12/04 15:17:35;;;;;;;1.75;1.30;;;;;;;-1.17;69.03;99220.75;4912992;29;20178;-78
2021/12/04 15:20:09;;;;;;;2.67;1.55;;;;;;;-1.37;69.68;99190.38;4897766;29;20047;-79
2021/12/04 15:22:42;;;;;;;2.55;1.50;;;;;;;-1.24;68.57;99220.59;4898769;29;20064;-77
2021/12/04 15:25:13;;;;;;;3.53;1.70;;;;;;;-1.36;69.09;99220.19;4913568;29;20064;-77